Aviation Digital Data Service (ADDS)

Output produced by METARs form (1351 UTC 27 February 2017)
found at http://www.aviationweather.gov/adds/metars/
 
KLNS 271253Z 00000KT 7SM OVC110 M01/M03 A3039 RMK AO2 SLP296 T10061028
KLNS 271126Z 2712/2812 15007KT P6SM BKN090